Time;durP1;ratioP1;P1;durP2;ratioP2;P2;SDS_P1;SDS_P2;PMS_P1;PMS_P2;Temp;Humidity;BMP_temperature;BMP_pressure;BME280_temperature;BME280_humidity;BME280_pressure;Samples;Min_cycle;Max_cycle;Signal;HPM_P1;HPM_P2
2022/05/04 00:01:24;;;;;;;15.63;8.57;;;12.50;99.90;;;12.66;73.04;101105.19;5170436;28;20050;-69
2022/05/04 00:03:56;;;;;;;14.13;7.10;;;12.50;99.90;;;12.65;73.12;101113.88;5169921;28;20046;-68
2022/05/04 00:06:28;;;;;;;11.95;6.28;;;12.50;99.90;;;12.62;73.44;101111.16;5170157;28;20050;-68
2022/05/04 00:09:00;;;;;;;13.55;6.93;;;12.40;99.90;;;12.58;73.55;101106.66;5170631;28;20046;-68
2022/05/04 00:11:32;;;;;;;15.02;8.40;;;12.40;99.90;;;12.55;73.82;101116.13;5170069;28;20476;-68
2022/05/04 00:14:05;;;;;;;14.02;7.63;;;12.40;99.90;;;12.49;73.73;101120.31;5166772;28;20064;-68
2022/05/04 00:16:38;;;;;;;14.23;8.18;;;12.30;99.90;;;12.44;74.26;101113.16;5162115;28;20054;-71
2022/05/04 00:19:10;;;;;;;15.18;7.70;;;12.30;99.90;;;12.39;74.56;101120.00;5169992;28;20415;-70
2022/05/04 00:21:42;;;;;;;15.00;7.80;;;12.20;99.90;;;12.34;74.66;101118.97;5160553;28;20400;-68
2022/05/04 00:24:14;;;;;;;15.02;7.45;;;12.20;99.90;;;12.30;74.87;101109.22;5169994;28;20406;-71
2022/05/04 00:26:46;;;;;;;15.80;8.68;;;12.10;99.90;;;12.26;74.94;101109.94;5170257;28;20184;-68
2022/05/04 00:29:20;;;;;;;17.88;8.30;;;12.10;99.90;;;12.21;74.95;101110.72;5163525;28;20049;-68
2022/05/04 00:31:52;;;;;;;16.17;7.97;;;12.00;99.90;;;12.18;75.30;101110.59;5169800;28;20306;-68
2022/05/04 00:34:24;;;;;;;14.55;8.13;;;12.00;99.90;;;12.15;75.38;101110.50;5161719;28;20061;-68
2022/05/04 00:36:59;;;;;;;16.25;7.80;;;12.00;99.90;;;12.10;75.32;101112.06;5166988;28;20048;-68
2022/05/04 00:39:31;;;;;;;19.10;9.20;;;11.90;99.90;;;12.08;75.77;101107.63;5160499;28;20420;-68
2022/05/04 00:42:11;;;;;;;17.98;9.30;;;11.90;99.90;;;12.08;75.71;101108.53;5181810;28;20056;-69
2022/05/04 00:44:47;;;;;;;19.65;8.13;;;11.90;99.90;;;12.08;75.75;101118.09;5187192;28;20384;-68
2022/05/04 00:47:20;;;;;;;14.88;8.02;;;11.90;99.90;;;12.03;75.94;101109.19;5187208;28;20050;-69
2022/05/04 00:49:53;;;;;;;18.35;8.88;;;11.90;99.90;;;12.00;76.06;101109.06;5172305;28;20050;-68
2022/05/04 00:52:25;;;;;;;17.58;8.75;;;11.80;99.90;;;11.95;76.07;101107.22;5165815;28;20051;-68
2022/05/04 00:54:57;;;;;;;21.35;8.43;;;11.80;99.90;;;11.91;76.21;101109.66;5166559;28;20057;-68
2022/05/04 01:00:22;;;;;;;16.25;7.78;;;11.70;99.90;;;11.83;76.55;101113.75;5166178;28;20054;-68
2022/05/04 01:02:54;;;;;;;17.50;8.65;;;11.70;99.90;;;11.81;76.85;101112.81;5165434;28;20555;-69
2022/05/04 01:05:26;;;;;;;17.92;7.80;;;11.70;99.90;;;11.77;77.03;101116.09;5167013;28;20042;-70
2022/05/04 01:07:58;;;;;;;16.60;8.48;;;11.60;99.90;;;11.73;77.23;101114.22;5161205;28;20064;-69
2022/05/04 01:10:30;;;;;;;15.45;7.85;;;11.60;99.90;;;11.72;77.32;101122.88;5176801;28;20052;-69
2022/05/04 01:13:02;;;;;;;19.05;9.10;;;11.60;99.90;;;11.67;77.45;101115.78;5185864;28;20056;-69
2022/05/04 01:15:36;;;;;;;20.20;8.77;;;11.60;99.90;;;11.63;77.55;101121.72;5186536;28;20054;-72
2022/05/04 01:18:08;;;;;;;16.50;8.40;;;11.50;99.90;;;11.61;77.76;101120.81;5185947;28;20050;-67
2022/05/04 01:20:40;;;;;;;14.30;7.70;;;11.50;99.90;;;11.59;77.88;101118.94;5186335;28;20049;-67
2022/05/04 01:23:14;;;;;;;15.32;7.65;;;11.50;99.90;;;11.58;78.01;101125.91;5185573;28;20140;-68
2022/05/04 01:25:47;;;;;;;14.73;7.85;;;11.40;99.90;;;11.55;77.93;101120.56;5186619;28;20054;-68
2022/05/04 01:28:19;;;;;;;12.57;6.95;;;11.40;99.90;;;11.56;78.06;101121.47;5186093;28;20137;-70
2022/05/04 01:30:51;;;;;;;12.00;6.97;;;11.40;99.90;;;11.56;78.32;101117.13;5186436;28;20046;-68
2022/05/04 01:33:23;;;;;;;12.77;6.95;;;11.40;99.90;;;11.57;78.10;101124.13;5185422;28;20046;-68
2022/05/04 01:35:55;;;;;;;13.40;7.40;;;11.40;99.90;;;11.61;77.80;101123.41;5186282;28;20054;-68
2022/05/04 01:38:28;;;;;;;12.32;7.07;;;11.40;99.90;;;11.66;77.46;101115.72;5185896;28;20056;-68
2022/05/04 01:41:00;;;;;;;13.18;7.70;;;11.50;99.90;;;11.66;76.92;101118.31;5185956;28;20056;-69
2022/05/04 01:43:32;;;;;;;14.30;6.47;;;11.50;99.90;;;11.65;76.28;101124.38;5185821;28;20046;-69
2022/05/04 01:46:04;;;;;;;12.15;6.82;;;11.50;99.90;;;11.59;76.26;101122.44;5185731;28;20046;-69
2022/05/04 01:48:36;;;;;;;13.93;6.93;;;11.50;99.90;;;11.58;76.11;101122.41;5184013;28;20419;-71
2022/05/04 01:51:08;;;;;;;12.82;6.97;;;11.40;99.90;;;11.54;76.18;101129.25;5186200;28;20687;-68
2022/05/04 01:53:42;;;;;;;14.20;7.40;;;11.40;99.90;;;11.51;76.22;101117.78;5185365;28;20050;-69
2022/05/04 01:56:14;;;;;;;14.82;8.02;;;11.40;99.90;;;11.45;76.50;101128.91;5185456;28;20054;-68
2022/05/04 01:58:46;;;;;;;14.40;7.15;;;11.30;99.90;;;11.38;76.55;101127.78;5185348;28;20411;-68
2022/05/04 02:01:18;;;;;;;14.93;7.72;;;11.30;99.90;;;11.36;76.59;101115.53;5185766;28;20046;-69
2022/05/04 02:03:50;;;;;;;13.40;7.30;;;11.20;99.90;;;11.30;76.89;101116.19;5185613;28;20056;-68
2022/05/04 02:06:22;;;;;;;13.48;7.13;;;11.20;99.90;;;11.28;77.00;101122.16;5185165;28;20054;-68
2022/05/04 02:08:58;;;;;;;15.63;7.68;;;11.20;99.90;;;11.22;77.34;101125.47;5184965;28;20056;-68
2022/05/04 02:11:32;;;;;;;16.92;7.70;;;11.10;99.90;;;11.19;77.56;101119.22;5185015;28;20057;-69
2022/05/04 02:14:05;;;;;;;12.60;7.40;;;11.10;99.90;;;11.19;77.92;101124.44;5185356;28;20507;-69
2022/05/04 02:16:37;;;;;;;14.23;6.32;;;11.00;99.90;;;11.19;77.98;101132.25;5185620;28;20413;-68
2022/05/04 02:19:09;;;;;;;13.18;7.20;;;11.00;99.90;;;11.16;77.95;101132.16;5160794;28;20388;-70
2022/05/04 02:21:41;;;;;;;14.40;6.82;;;11.00;99.90;;;11.13;77.93;101133.81;5164451;28;20046;-69
2022/05/04 02:24:15;;;;;;;14.98;7.57;;;11.00;99.90;;;11.10;77.82;101132.81;5164697;28;20056;-69
2022/05/04 02:26:47;;;;;;;12.55;7.43;;;11.00;99.90;;;11.07;78.16;101130.06;5164781;28;20049;-68
2022/05/04 02:29:19;;;;;;;13.82;6.50;;;10.90;99.90;;;11.04;78.25;101132.59;5164879;28;20046;-68
2022/05/04 02:31:50;;;;;;;14.32;7.22;;;10.90;99.90;;;11.02;78.28;101123.78;5164548;28;20053;-69
2022/05/04 02:34:22;;;;;;;13.50;7.30;;;10.90;99.90;;;10.98;78.57;101133.22;5164355;28;20042;-71
2022/05/04 02:39:45;;;;;;;13.25;6.80;;;10.80;99.90;;;10.92;79.17;101119.94;5164141;28;20143;-69
2022/05/04 02:42:17;;;;;;;12.15;6.93;;;10.80;99.90;;;10.91;79.46;101112.97;5164523;28;20518;-69
2022/05/04 02:44:49;;;;;;;13.82;6.80;;;10.80;99.90;;;10.91;79.77;101118.19;5164174;28;20069;-70
2022/05/04 02:47:21;;;;;;;14.27;6.90;;;10.80;99.90;;;10.94;80.20;101117.41;5164247;28;20054;-68
2022/05/04 02:49:53;;;;;;;12.55;7.40;;;10.80;99.90;;;10.96;80.35;101111.44;5164376;28;20050;-68
2022/05/04 02:52:25;;;;;;;16.38;6.97;;;10.80;99.90;;;11.00;80.40;101120.25;5164289;28;20042;-69
2022/05/04 02:54:59;;;;;;;15.75;7.75;;;10.80;99.90;;;11.06;80.21;101113.53;5164451;28;20109;-68
2022/05/04 02:57:31;;;;;;;13.85;6.65;;;10.90;99.90;;;11.09;80.19;101113.66;5164263;28;20411;-68
2022/05/04 03:00:03;;;;;;;14.15;7.18;;;10.90;99.90;;;11.12;80.30;101113.78;5164493;28;20385;-69
2022/05/04 03:02:35;;;;;;;15.45;7.55;;;11.00;99.90;;;11.16;80.20;101119.13;5163621;28;20058;-68
2022/05/04 03:05:09;;;;;;;13.65;7.20;;;11.00;99.90;;;11.18;80.38;101122.66;5164233;28;20447;-68
2022/05/04 03:07:41;;;;;;;16.83;7.35;;;11.00;99.90;;;11.18;80.13;101118.34;5164595;28;20050;-68
2022/05/04 03:10:15;;;;;;;13.25;6.68;;;11.00;99.90;;;11.18;79.84;101112.22;5164168;28;20108;-68
2022/05/04 03:12:47;;;;;;;13.80;7.65;;;11.00;99.90;;;11.21;79.75;101115.81;5164012;28;20050;-68
2022/05/04 03:15:19;;;;;;;13.68;7.90;;;11.00;99.90;;;11.21;79.67;101115.81;5163956;28;20065;-68
2022/05/04 03:17:51;;;;;;;15.82;8.10;;;11.10;99.90;;;11.23;80.24;101122.00;5163752;28;20058;-68
2022/05/04 03:20:23;;;;;;;13.60;7.47;;;11.10;99.90;;;11.24;80.10;101113.34;5164237;28;20050;-69
2022/05/04 03:22:55;;;;;;;13.98;7.60;;;11.10;99.90;;;11.26;80.11;101116.00;5163498;28;20057;-68
2022/05/04 03:25:29;;;;;;;13.82;6.85;;;11.10;99.90;;;11.29;80.43;101111.78;5163838;28;20430;-69
2022/05/04 03:28:01;;;;;;;17.90;10.02;;;11.10;99.90;;;11.34;80.63;101114.56;5163963;28;20494;-68
2022/05/04 03:30:33;;;;;;;18.25;10.13;;;11.20;99.90;;;11.38;80.68;101108.63;5163729;28;20052;-67
2022/05/04 03:33:05;;;;;;;17.52;9.00;;;11.20;99.90;;;11.42;80.97;101110.53;5163418;28;20053;-68
2022/05/04 03:35:37;;;;;;;18.98;8.60;;;11.30;99.90;;;11.46;80.95;101104.56;5163823;28;20059;-67
2022/05/04 03:38:09;;;;;;;14.60;8.00;;;11.30;99.90;;;11.49;80.86;101098.59;5164830;28;20056;-69
2022/05/04 03:40:42;;;;;;;19.77;8.70;;;11.30;99.90;;;11.49;81.02;101104.69;5163719;28;20053;-69
2022/05/04 03:43:14;;;;;;;17.10;8.32;;;11.30;99.90;;;11.50;81.15;101101.25;5163170;28;20042;-69
2022/05/04 03:45:46;;;;;;;18.77;8.30;;;11.30;99.90;;;11.49;81.24;101099.47;5163981;28;20074;-71
2022/05/04 03:48:18;;;;;;;14.82;7.53;;;11.30;99.90;;;11.50;81.58;101090.78;5163667;28;20414;-67
2022/05/04 03:50:50;;;;;;;17.52;8.70;;;11.40;99.90;;;11.52;81.77;101094.34;5163518;28;20046;-67
2022/05/04 03:53:23;;;;;;;15.57;7.72;;;11.40;99.90;;;11.54;81.88;101100.53;5163081;28;20050;-69
2022/05/04 03:55:56;;;;;;;15.80;7.47;;;11.40;99.90;;;11.56;82.17;101101.47;5163628;28;20086;-69
2022/05/04 03:58:28;;;;;;;19.90;8.30;;;11.40;99.90;;;11.58;81.95;101110.22;5163397;28;20061;-68
2022/05/04 04:01:01;;;;;;;19.38;8.77;;;11.40;99.90;;;11.58;82.39;101112.84;5163544;28;20049;-68
2022/05/04 04:03:33;;;;;;;15.77;7.82;;;11.40;99.90;;;11.61;82.36;101114.69;5163028;28;20498;-67
2022/05/04 04:06:06;;;;;;;22.15;8.90;;;11.50;99.90;;;11.61;82.22;101114.69;5163334;28;20472;-71
2022/05/04 04:08:38;;;;;;;20.98;8.93;;;11.50;99.90;;;11.59;82.41;101122.44;5163373;28;20054;-70
2022/05/04 04:11:11;;;;;;;15.55;7.60;;;11.50;99.90;;;11.59;82.24;101117.22;5163894;28;20141;-70
2022/05/04 04:13:44;;;;;;;16.85;7.72;;;11.40;99.90;;;11.57;82.10;101121.50;5177916;23;20066;-72
2022/05/04 04:16:17;;;;;;;15.95;7.53;;;11.50;99.90;;;11.57;82.16;101120.63;5143750;28;20039;-72
2022/05/04 04:18:49;;;;;;;14.70;7.68;;;11.40;99.90;;;11.55;82.10;101115.34;5146347;28;20053;-72
2022/05/04 04:24:10;;;;;;;17.73;7.68;;;11.40;99.90;;;11.54;82.53;101116.19;5167848;28;20049;-72
2022/05/04 04:26:44;;;;;;;19.17;7.50;;;11.40;99.90;;;11.56;82.65;101124.97;5156140;28;20511;-72
2022/05/04 04:29:16;;;;;;;16.55;7.40;;;11.40;99.90;;;11.58;82.53;101133.72;5158557;28;20062;-72
2022/05/04 04:31:48;;;;;;;16.20;7.50;;;11.40;99.90;;;11.62;82.43;101133.00;5146108;28;20047;-72
2022/05/04 04:34:20;;;;;;;16.27;6.72;;;11.50;99.90;;;11.64;82.03;101126.13;5146992;28;20047;-72
2022/05/04 04:36:51;;;;;;;15.52;7.47;;;11.50;99.90;;;11.63;81.89;101129.56;5146762;28;20500;-71
2022/05/04 04:39:23;;;;;;;13.95;7.22;;;11.50;99.90;;;11.63;81.49;101134.78;5146440;28;20050;-72
2022/05/04 04:41:57;;;;;;;16.60;7.28;;;11.50;99.90;;;11.63;81.41;101134.78;5146332;28;20050;-72
2022/05/04 04:44:29;;;;;;;15.45;6.80;;;11.50;99.90;;;11.66;80.94;101141.84;5146892;28;20061;-72
2022/05/04 04:47:01;;;;;;;14.35;6.13;;;11.50;99.90;;;11.64;80.87;101130.44;5146568;28;20412;-72
2022/05/04 04:49:33;;;;;;;20.38;7.80;;;11.50;99.90;;;11.67;80.44;101141.91;5146311;28;20049;-72
2022/05/04 04:52:05;;;;;;;16.15;7.38;;;11.50;99.90;;;11.66;80.48;101142.72;5146229;28;20047;-72
2022/05/04 04:54:37;;;;;;;13.85;6.63;;;11.50;99.90;;;11.65;80.54;101142.66;5146193;28;20049;-72
2022/05/04 04:57:11;;;;;;;19.98;7.90;;;11.50;99.90;;;11.64;80.82;101141.78;5146444;28;20047;-72
2022/05/04 04:59:43;;;;;;;15.25;6.68;;;11.50;99.90;;;11.66;80.93;101155.78;5146358;28;20054;-72
2022/05/04 05:02:15;;;;;;;17.33;7.05;;;11.50;99.90;;;11.73;80.82;101150.78;5145560;28;20051;-72
2022/05/04 05:04:47;;;;;;;15.85;7.35;;;11.60;99.90;;;11.78;80.96;101160.56;5146076;28;20050;-72
2022/05/04 05:07:19;;;;;;;15.70;6.13;;;11.60;99.90;;;11.84;80.44;101159.91;5146143;28;20051;-72
2022/05/04 05:09:51;;;;;;;15.52;7.30;;;11.60;99.90;;;11.93;80.51;101162.84;5146171;28;20054;-72
2022/05/04 05:12:24;;;;;;;15.35;6.95;;;11.70;99.90;;;12.01;80.23;101163.13;5145907;28;20495;-72
2022/05/04 05:17:46;;;;;;;16.50;7.35;;;11.90;99.90;;;12.32;79.44;101151.97;5145846;28;20061;-72
2022/05/04 05:20:18;;;;;;;18.38;8.05;;;12.00;99.90;;;12.49;79.24;101154.31;5145713;28;20050;-72
2022/05/04 05:22:50;;;;;;;13.40;6.47;;;12.20;99.90;;;12.56;78.22;101160.63;5145255;28;20050;-72
2022/05/04 05:25:22;;;;;;;17.65;7.47;;;12.30;99.90;;;12.62;77.53;101159.94;5145561;28;20050;-72
2022/05/04 05:27:56;;;;;;;15.25;6.88;;;12.30;99.90;;;12.65;77.27;101171.41;5145522;28;20051;-72
2022/05/04 05:30:28;;;;;;;16.95;7.22;;;12.40;99.90;;;12.68;76.65;101165.38;5146064;28;20047;-72
2022/05/04 05:33:00;;;;;;;15.80;6.68;;;12.40;99.90;;;12.70;76.46;101159.34;5145157;28;20056;-72
2022/05/04 05:35:32;;;;;;;15.70;6.95;;;12.50;99.90;;;12.70;76.05;101169.81;5145799;28;20051;-72
2022/05/04 05:38:04;;;;;;;18.45;7.05;;;12.50;99.90;;;12.65;75.73;101160.03;5145545;28;20062;-72
2022/05/04 05:40:35;;;;;;;15.98;6.68;;;12.40;99.90;;;12.58;75.58;101161.56;5145606;28;20051;-72
2022/05/04 05:43:09;;;;;;;18.23;7.35;;;12.40;99.90;;;12.58;75.80;101168.53;5145354;28;20057;-72
2022/05/04 05:45:41;;;;;;;12.98;7.03;;;12.40;99.90;;;12.59;76.02;101175.56;5145401;28;20054;-72
2022/05/04 05:48:13;;;;;;;16.30;6.85;;;12.40;99.90;;;12.63;76.11;101167.84;5145437;28;20057;-72
2022/05/04 05:50:45;;;;;;;14.10;6.68;;;12.40;99.90;;;12.60;75.70;101173.00;5145466;28;20057;-72
2022/05/04 05:53:17;;;;;;;16.90;6.70;;;12.40;99.90;;;12.53;75.19;101170.13;5145104;28;20065;-72
2022/05/04 05:55:49;;;;;;;17.05;6.95;;;12.30;99.90;;;12.42;75.04;101168.03;5142350;28;20043;-72
2022/05/04 05:58:22;;;;;;;16.92;7.00;;;12.20;99.90;;;12.38;75.66;101165.25;5144966;28;20432;-69
2022/05/04 06:00:54;;;;;;;12.07;7.20;;;12.20;99.90;;;12.43;75.61;101163.69;5145465;28;20403;-69
2022/05/04 06:03:26;;;;;;;15.40;6.32;;;12.20;99.90;;;12.44;75.36;101161.13;5145125;28;20050;-69
2022/05/04 06:05:58;;;;;;;16.88;7.20;;;12.20;99.90;;;12.45;74.68;101159.38;5145511;28;20072;-69
2022/05/04 06:08:30;;;;;;;15.35;6.80;;;12.20;99.90;;;12.55;74.87;101163.22;5145396;28;20388;-69
2022/05/04 06:11:02;;;;;;;16.75;6.85;;;12.20;99.90;;;12.72;74.58;101148.97;5144544;28;20051;-69
2022/05/04 06:13:35;;;;;;;20.27;7.80;;;12.40;99.90;;;12.90;73.97;101161.69;5125248;28;20404;-70
2022/05/04 06:16:07;;;;;;;17.55;7.75;;;12.50;99.90;;;13.00;73.24;101169.00;5126159;28;20067;-69
2022/05/04 06:18:39;;;;;;;17.45;7.03;;;12.60;99.90;;;13.11;72.80;101161.50;5125204;28;20062;-69
2022/05/04 06:21:11;;;;;;;17.65;7.10;;;12.70;99.90;;;13.23;72.47;101160.13;5125099;28;20494;-70
2022/05/04 06:23:43;;;;;;;16.13;7.55;;;12.80;99.90;;;13.34;71.70;101170.06;5125073;28;20054;-71
2022/05/04 06:26:20;;;;;;;15.90;7.20;;;12.90;99.90;;;13.37;71.29;101170.16;5125130;28;20496;-70
2022/05/04 06:28:53;;;;;;;15.40;7.18;;;13.00;99.90;;;13.39;71.18;101169.34;5138114;28;20089;-70
2022/05/04 06:34:14;;;;;;;18.10;7.28;;;13.00;99.90;;;13.58;70.73;101176.00;5133776;28;20058;-70
2022/05/04 06:36:46;;;;;;;19.00;7.05;;;13.20;99.90;;;13.79;69.72;101179.22;5128363;28;20046;-70
2022/05/04 06:39:18;;;;;;;16.25;7.32;;;13.30;99.90;;;13.95;69.06;101177.03;5144755;28;20057;-70
2022/05/04 06:41:50;;;;;;;15.85;7.18;;;13.40;99.90;;;14.04;68.28;101172.94;5144513;28;20053;-69
2022/05/04 06:44:24;;;;;;;17.40;7.55;;;13.60;99.90;;;13.99;68.01;101184.13;5144629;28;20054;-69
2022/05/04 06:46:56;;;;;;;14.60;6.80;;;13.60;99.90;;;13.98;67.98;101180.63;5144622;28;20061;-69
2022/05/04 06:49:28;;;;;;;16.45;6.95;;;13.60;99.90;;;14.10;68.49;101187.94;5144102;28;20053;-70
2022/05/04 06:51:59;;;;;;;14.95;6.57;;;13.70;99.90;;;14.26;67.73;101181.34;5132436;28;20058;-70
2022/05/04 06:54:31;;;;;;;16.55;6.82;;;13.80;99.90;;;14.46;67.38;101190.63;5134969;28;20389;-70
2022/05/04 06:57:04;;;;;;;17.98;7.78;;;13.90;99.90;;;14.83;66.47;101195.06;5124426;28;20051;-73
2022/05/04 06:59:37;;;;;;;13.68;7.00;;;14.20;99.90;;;15.18;64.55;101187.09;5124347;28;20059;-70
2022/05/04 07:02:09;;;;;;;16.30;7.72;;;14.40;99.90;;;15.51;63.03;101197.44;5124096;28;20047;-70
2022/05/04 07:04:41;;;;;;;14.45;7.28;;;14.80;99.90;;;15.81;62.00;101202.50;5124353;28;20074;-70
2022/05/04 07:07:13;;;;;;;20.98;7.43;;;15.00;99.90;;;16.16;60.96;101197.00;5124351;28;20047;-70
2022/05/04 07:09:45;;;;;;;15.52;6.65;;;15.30;99.50;;;16.63;59.80;101196.97;5127974;28;20069;-70
2022/05/04 07:12:17;;;;;;;15.52;6.88;;;15.70;99.10;;;17.03;57.85;101191.50;5153147;28;20042;-72
2022/05/04 07:14:51;;;;;;;15.68;6.95;;;16.10;98.00;;;16.98;56.25;101187.91;5163865;28;20061;-71
2022/05/04 07:17:24;;;;;;;17.75;7.10;;;16.20;96.30;;;16.75;56.42;101202.44;5164224;28;20158;-71
2022/05/04 07:19:56;;;;;;;11.80;6.38;;;16.10;96.00;;;16.59;57.40;101200.41;5157639;28;20106;-72
2022/05/04 07:22:28;;;;;;;15.77;7.28;;;16.00;96.30;;;16.79;57.94;101188.47;5143636;28;20047;-73
2022/05/04 07:25:00;;;;;;;18.40;7.05;;;16.00;96.90;;;16.92;56.68;101195.72;5143836;28;20057;-71
2022/05/04 07:27:32;;;;;;;18.05;6.72;;;16.20;96.10;;;17.07;57.06;101192.41;5144042;28;20057;-70
2022/05/04 07:30:07;;;;;;;16.23;6.95;;;16.30;96.20;;;17.29;56.04;101191.88;5144057;28;20054;-72
2022/05/04 07:32:39;;;;;;;14.40;6.72;;;16.40;95.70;;;17.25;54.90;101186.53;5144020;28;20502;-72
2022/05/04 07:35:11;;;;;;;17.02;6.35;;;16.50;94.60;;;17.01;55.43;101181.78;5144011;28;20400;-72
2022/05/04 07:37:43;;;;;;;15.63;7.03;;;16.30;94.60;;;16.73;56.16;101178.72;5143651;28;20051;-70
2022/05/04 07:43:05;;;;;;;16.42;7.07;;;16.10;95.20;;;17.04;55.98;101190.63;5143304;28;20526;-70
2022/05/04 07:45:38;;;;;;;17.88;7.18;;;16.20;95.10;;;17.16;55.53;101189.94;5144782;28;20043;-72
2022/05/04 07:48:11;;;;;;;14.65;7.25;;;16.30;94.80;;;17.25;55.39;101189.16;5148289;28;20495;-71
2022/05/04 07:50:43;;;;;;;15.07;7.22;;;16.40;95.00;;;17.39;55.00;101187.59;5147170;28;20073;-70
2022/05/04 07:53:14;;;;;;;20.30;7.78;;;16.50;94.50;;;17.61;54.09;101189.66;5147770;28;20054;-69
2022/05/04 07:55:47;;;;;;;16.38;7.13;;;16.60;94.00;;;17.53;54.36;101190.41;5155930;28;20038;-70
2022/05/04 07:58:19;;;;;;;17.70;7.07;;;16.60;93.80;;;17.39;54.55;101195.50;5157147;28;20388;-72
2022/05/04 08:06:34;;;;;;;16.05;6.88;;;16.70;94.10;;;18.47;52.78;101200.25;5162612;28;20542;-72
2022/05/04 08:09:06;;;;;;;20.05;7.32;;;17.10;93.60;;;19.01;49.51;101205.09;5147181;28;20055;-71
2022/05/04 08:11:38;;;;;;;17.90;8.30;;;17.50;91.30;;;19.32;49.24;101215.88;5147186;28;20054;-72
2022/05/04 08:14:10;;;;;;;16.27;7.15;;;17.70;91.10;;;19.68;48.70;101220.47;5163473;28;20137;-71
2022/05/04 08:16:44;;;;;;;15.77;7.45;;;18.00;90.50;;;20.27;47.76;101218.00;5155521;28;20046;-71
2022/05/04 08:19:19;;;;;;;16.63;7.60;;;18.40;90.30;;;20.55;46.63;101210.16;5147792;28;20098;-71
2022/05/04 08:21:51;;;;;;;;;;;18.60;88.30;;;20.17;46.57;101210.94;5162075;28;20058;-70
2022/05/04 08:24:24;;;;;;;17.98;8.13;;;18.60;85.90;;;19.64;47.40;101211.66;5158917;28;19922;-71
2022/05/04 08:26:56;;;;;;;16.70;8.32;;;18.40;85.20;;;19.27;48.67;101207.91;5161069;28;20132;-71
2022/05/04 08:29:28;;;;;;;15.23;7.18;;;18.20;86.20;;;19.05;49.75;101206.91;5147724;28;20057;-70
2022/05/04 08:32:01;;;;;;;18.20;8.63;;;18.10;87.30;;;18.81;49.96;101210.25;5147760;28;20077;-70
2022/05/04 08:34:33;;;;;;;16.25;8.02;;;17.90;87.20;;;18.65;50.89;101205.69;5147555;28;20043;-70
2022/05/04 08:37:06;;;;;;;18.15;9.00;;;17.80;88.30;;;18.61;51.62;101215.34;5147505;28;20480;-70
2022/05/04 08:39:38;;;;;;;17.48;8.48;;;17.70;89.60;;;18.63;51.67;101218.88;5147595;28;20051;-70
2022/05/04 08:42:12;;;;;;;20.98;8.75;;;17.70;90.20;;;18.57;51.16;101213.53;5146342;28;20480;-70
2022/05/04 08:44:48;;;;;;;18.88;9.55;;;17.60;89.60;;;18.65;51.65;101214.50;5147399;28;20328;-70
2022/05/04 08:47:23;;;;;;;18.83;8.40;;;17.60;90.30;;;19.08;51.23;101220.13;5147534;28;20485;-71
2022/05/04 08:49:55;;;;;;;15.52;8.13;;;17.70;90.90;;;20.10;49.13;101209.16;5147145;28;20046;-70
2022/05/04 08:52:29;;;;;;;18.83;8.43;;;18.20;90.50;;;21.04;46.76;101212.75;5147089;28;20105;-71
2022/05/04 08:55:02;;;;;;;20.27;8.07;;;18.80;88.40;;;21.14;45.49;101215.41;5147336;28;20046;-70
2022/05/04 08:57:34;;;;;;;17.63;7.95;;;19.10;85.50;;;20.65;45.88;101216.31;5146513;28;20051;-71
2022/05/04 09:00:10;;;;;;;18.70;8.80;;;19.10;83.30;;;20.41;47.06;101206.56;5146998;28;20057;-71
2022/05/04 09:02:44;;;;;;;18.52;7.93;;;19.00;84.20;;;20.37;47.29;101207.44;5147164;28;20460;-71
2022/05/04 09:05:19;;;;;;;21.55;9.15;;;19.00;84.90;;;20.72;45.44;101204.84;5146983;28;20053;-70
2022/05/04 09:07:53;;;;;;;20.92;9.23;;;19.10;81.90;;;20.33;46.41;101196.84;5147206;28;20054;-70
2022/05/04 09:10:28;;;;;;;16.45;8.30;;;18.90;82.50;;;20.03;47.05;101202.97;5147001;28;20061;-70
2022/05/04 09:13:00;;;;;;;;;;;18.80;82.50;;;19.79;47.34;101187.91;5147356;28;20057;-70
2022/05/04 09:15:35;;;;;;;15.13;7.75;;;18.70;82.70;;;19.50;48.12;101195.72;5146554;28;19972;-70
2022/05/04 09:18:13;;;;;;;19.33;9.10;;;18.50;82.90;;;19.21;48.91;101197.31;5146853;28;20054;-70
2022/05/04 09:20:53;;;;;;;18.75;8.35;;;18.30;84.20;;;19.00;49.47;101198.06;5146871;28;20543;-70
2022/05/04 09:23:29;;;;;;;18.98;8.07;;;18.20;84.30;;;18.89;50.72;101191.81;5146709;28;20051;-70
2022/05/04 09:26:05;;;;;;;18.05;8.50;;;18.10;86.00;;;18.99;50.17;101191.00;5146624;28;20051;-70
2022/05/04 09:28:37;;;;;;;18.77;8.85;;;18.10;85.80;;;19.10;50.76;101189.31;5146732;28;20058;-70
2022/05/04 09:31:09;;;;;;;24.17;9.23;;;18.20;86.60;;;19.29;50.48;101184.13;5146609;28;20568;-69
2022/05/04 09:33:43;;;;;;;17.85;8.75;;;18.30;86.60;;;19.48;50.38;101191.28;5146336;28;20058;-69
2022/05/04 09:36:15;;;;;;;18.17;8.57;;;18.40;87.40;;;19.72;49.77;101191.41;5146281;28;20134;-69
2022/05/04 09:47:20;;;;;;;20.60;9.05;;;19.30;82.70;;;20.59;47.46;101188.06;5146091;28;20085;-72
2022/05/04 09:50:04;;;;;;;18.80;8.73;;;19.50;82.10;;;20.66;46.71;101184.53;5146320;28;20552;-71
2022/05/04 09:52:44;;;;;;;20.75;8.48;;;19.60;80.70;;;20.74;47.09;101182.78;5146227;28;20055;-71
2022/05/04 09:55:19;;;;;;;20.35;9.40;;;19.70;80.90;;;20.91;46.48;101180.09;5145841;28;20135;-70
2022/05/04 09:57:52;;;;;;;21.35;8.88;;;19.90;80.10;;;21.08;46.01;101188.03;5145935;28;20050;-70
2022/05/04 10:00:27;;;;;;;18.58;9.40;;;20.00;79.10;;;21.22;45.68;101190.66;5146082;28;20476;-70
2022/05/04 10:02:59;;;;;;;22.17;8.88;;;20.20;78.30;;;21.31;46.11;101180.03;5145677;28;20050;-71
2022/05/04 10:05:37;;;;;;;18.77;9.50;;;20.30;79.00;;;21.45;44.97;101179.97;5145662;28;20051;-70
2022/05/04 10:08:09;;;;;;;14.77;6.97;;;20.40;77.40;;;21.44;44.93;101180.88;5145671;28;20051;-70
2022/05/04 10:10:42;;;;;;;16.88;9.27;;;20.50;76.60;;;21.40;44.98;101185.31;5145031;28;20480;-71
2022/05/04 10:13:16;;;;;;;19.40;9.82;;;20.50;76.10;;;21.29;44.94;101187.13;5145448;28;20133;-71
2022/05/04 10:15:51;;;;;;;19.20;9.90;;;20.40;75.80;;;21.40;45.17;101186.22;5229115;23;20498;-70
2022/05/04 10:18:29;;;;;;;21.67;10.32;;;20.50;76.20;;;21.55;44.63;101187.03;5153045;28;20109;-71
2022/05/04 10:21:10;;;;;;;17.52;8.85;;;20.60;75.50;;;21.46;44.50;101179.13;5145322;28;20476;-70
2022/05/04 10:23:47;;;;;;;17.88;9.13;;;20.50;74.70;;;21.22;44.89;101185.34;5145046;28;20057;-70
2022/05/04 10:26:37;;;;;;;14.90;7.43;;;20.40;74.90;;;21.06;45.24;101180.09;5145947;28;20050;-57
2022/05/04 10:32:37;;;;;;;16.58;8.40;;;20.30;75.20;;;21.23;44.99;101179.16;5136488;28;20117;-56
2022/05/04 10:35:35;;;;;;;16.75;6.72;;;20.40;74.70;;;21.31;44.75;101172.97;5134175;28;20082;-56
2022/05/04 10:38:18;;;;;;;18.92;9.02;;;20.40;74.50;;;21.53;44.56;101170.25;5137393;28;20051;-59
2022/05/04 10:40:57;;;;;;;20.65;8.77;;;20.60;74.30;;;21.61;44.59;101179.03;5144305;28;20101;-56
2022/05/04 10:43:42;;;;;;;17.02;8.35;;;20.60;74.30;;;21.71;44.29;101178.09;5144067;28;20054;-57
2022/05/04 10:46:17;;;;;;;20.02;9.02;;;20.80;73.90;;;21.83;44.21;101172.72;5144390;28;20133;-57
2022/05/04 10:48:56;;;;;;;18.55;7.35;;;20.90;73.80;;;22.11;44.44;101172.63;5144244;28;20057;-57
2022/05/04 10:51:31;;;;;;;18.73;7.80;;;21.10;74.30;;;22.44;43.48;101175.03;5144402;28;20057;-56
2022/05/04 10:54:08;;;;;;;22.15;9.45;;;21.40;73.40;;;22.40;42.31;101167.97;5144519;28;20065;-56
2022/05/04 10:56:44;;;;;;;18.65;9.70;;;21.40;71.50;;;22.30;42.97;101171.59;5137011;28;20050;-57
2022/05/04 10:59:25;;;;;;;15.52;8.45;;;21.40;71.70;;;22.13;43.13;101171.69;5143465;28;20101;-55
2022/05/04 11:02:00;;;;;;;20.83;10.52;;;21.30;71.30;;;22.05;44.25;101160.22;5142073;28;20307;-56
2022/05/04 11:04:32;;;;;;;21.52;10.60;;;21.30;72.60;;;22.01;44.28;101157.59;5142590;28;20471;-55